Time;durP1;ratioP1;P1;durP2;ratioP2;P2;SDS_P1;SDS_P2;PMS_P1;PMS_P2;Temp;Humidity;BMP_temperature;BMP_pressure;BME280_temperature;BME280_humidity;BME280_pressure;Samples;Min_cycle;Max_cycle;Signal;HPM_P1;HPM_P2
2022/10/20 00:00:27;;;;;;;17.38;5.00;;;18.20;94.00;;;;;;5088924;28;20081;-76
2022/10/20 00:02:52;;;;;;;13.23;5.15;;;18.20;94.00;;;;;;5097203;28;20020;-75
2022/10/20 00:05:18;;;;;;;12.45;4.75;;;18.20;94.10;;;;;;5093849;28;20093;-75
2022/10/20 00:07:44;;;;;;;12.90;4.90;;;18.20;94.10;;;;;;5093888;28;20120;-75
2022/10/20 00:10:09;;;;;;;14.88;5.13;;;18.20;94.10;;;;;;5089295;28;20028;-76
2022/10/20 00:12:35;;;;;;;11.80;4.10;;;18.20;94.00;;;;;;5095807;28;20020;-76
2022/10/20 00:15:01;;;;;;;10.18;4.13;;;18.10;94.10;;;;;;5091211;28;20028;-76
2022/10/20 00:17:26;;;;;;;15.25;4.45;;;18.10;94.20;;;;;;5089004;28;20519;-75
2022/10/20 00:19:52;;;;;;;15.95;4.50;;;18.10;94.30;;;;;;5093904;28;20081;-76
2022/10/20 00:22:18;;;;;;;13.88;4.38;;;18.10;94.20;;;;;;5096575;28;20039;-76
2022/10/20 00:24:44;;;;;;;15.02;4.10;;;18.10;94.20;;;;;;5097118;28;20494;-76
2022/10/20 00:27:09;;;;;;;8.00;3.95;;;18.10;94.30;;;;;;5096841;28;20042;-75
2022/10/20 00:29:35;;;;;;;12.15;4.13;;;18.10;94.40;;;;;;5094857;28;20024;-77
2022/10/20 00:32:00;;;;;;;11.30;4.35;;;18.10;94.40;;;;;;5095295;28;20032;-77
2022/10/20 00:34:26;;;;;;;15.18;4.10;;;18.10;94.10;;;;;;5091692;28;20523;-77
2022/10/20 00:36:52;;;;;;;11.30;4.07;;;18.10;94.20;;;;;;5095240;28;20115;-74
2022/10/20 00:39:17;;;;;;;14.93;4.50;;;18.00;94.20;;;;;;5093513;28;20036;-77
2022/10/20 00:41:43;;;;;;;11.13;4.25;;;18.00;94.30;;;;;;5095803;28;20112;-74
2022/10/20 00:44:48;;;;;;;16.40;4.30;;;18.00;94.30;;;;;;5096904;28;20032;-76
2022/10/20 00:47:42;;;;;;;13.70;4.10;;;18.00;94.20;;;;;;5096600;28;20388;-77
2022/10/20 00:50:19;;;;;;;12.82;4.20;;;18.00;94.10;;;;;;5087087;28;20025;-77
2022/10/20 00:52:46;;;;;;;13.02;4.55;;;17.90;94.40;;;;;;5094305;28;20440;-77
2022/10/20 00:55:17;;;;;;;11.90;4.28;;;17.90;94.50;;;;;;5088008;28;20107;-76
2022/10/20 00:57:46;;;;;;;13.32;3.67;;;17.90;94.40;;;;;;5092172;28;20024;-76
2022/10/20 01:00:12;;;;;;;11.93;4.65;;;17.80;94.40;;;;;;5097006;28;20388;-76
2022/10/20 01:02:38;;;;;;;16.58;4.07;;;17.80;94.60;;;;;;5078369;28;20050;-77
2022/10/20 01:05:04;;;;;;;14.02;3.85;;;17.90;94.60;;;;;;5084124;28;20496;-77
2022/10/20 01:07:30;;;;;;;13.38;4.38;;;17.90;94.60;;;;;;5094616;28;20446;-77
2022/10/20 01:09:56;;;;;;;15.30;4.45;;;17.90;94.60;;;;;;5095390;28;20024;-78
2022/10/20 01:12:27;;;;;;;14.45;4.20;;;18.00;94.50;;;;;;5093698;28;20504;-78
2022/10/20 01:15:07;;;;;;;14.85;4.43;;;18.00;94.40;;;;;;5086088;28;20594;-78
2022/10/20 01:17:48;;;;;;;17.75;4.85;;;18.00;94.40;;;;;;5090593;28;20020;-79
2022/10/20 01:20:19;;;;;;;13.25;4.20;;;18.00;94.40;;;;;;5085013;28;20024;-79
2022/10/20 01:23:03;;;;;;;16.15;4.55;;;17.90;94.40;;;;;;5092905;28;20043;-78
2022/10/20 01:25:47;;;;;;;11.32;3.42;;;17.90;94.40;;;;;;5094374;28;20032;-78
2022/10/20 01:28:20;;;;;;;;;;;17.90;94.40;;;;;;5083892;28;20024;-78
2022/10/20 01:30:52;;;;;;;12.75;3.58;;;17.90;94.30;;;;;;5084942;28;19919;-77
2022/10/20 01:33:36;;;;;;;11.88;3.90;;;17.90;94.60;;;;;;5097687;28;20112;-78
2022/10/20 01:36:01;;;;;;;10.32;3.83;;;17.90;94.40;;;;;;5095730;28;20028;-78
2022/10/20 01:38:34;;;;;;;10.98;3.60;;;17.90;94.50;;;;;;5091988;28;20034;-78
2022/10/20 01:41:20;;;;;;;13.15;3.60;;;17.90;94.30;;;;;;5098249;28;20020;-78
2022/10/20 01:43:48;;;;;;;15.75;4.10;;;17.90;94.30;;;;;;5095353;28;20052;-78
2022/10/20 01:46:18;;;;;;;12.10;4.18;;;17.80;94.30;;;;;;5098325;28;20023;-75
2022/10/20 01:48:45;;;;;;;13.68;3.97;;;17.80;94.60;;;;;;5088057;28;20114;-77
2022/10/20 01:51:10;;;;;;;14.90;4.60;;;17.90;94.60;;;;;;5098106;28;20031;-77
2022/10/20 01:53:36;;;;;;;11.10;4.20;;;17.90;94.60;;;;;;5099915;28;20028;-77
2022/10/20 01:56:03;;;;;;;15.50;4.07;;;17.90;94.50;;;;;;5100084;28;20050;-77
2022/10/20 01:58:35;;;;;;;9.85;3.88;;;17.90;94.60;;;;;;5097650;28;20024;-76
2022/10/20 02:01:24;;;;;;;11.57;4.10;;;17.90;94.50;;;;;;5092021;28;20020;-76
2022/10/20 02:03:56;;;;;;;13.90;4.00;;;17.90;94.50;;;;;;5085641;28;20090;-75
2022/10/20 02:06:43;;;;;;;10.10;4.07;;;18.00;94.60;;;;;;5098023;28;20089;-75
2022/10/20 02:09:20;;;;;;;12.40;4.30;;;17.90;94.40;;;;;;5099318;28;20032;-75
2022/10/20 02:11:57;;;;;;;12.50;4.10;;;17.90;94.50;;;;;;5093226;28;20485;-75
2022/10/20 02:14:23;;;;;;;11.63;4.03;;;17.90;94.40;;;;;;5085698;28;20031;-75
2022/10/20 02:16:55;;;;;;;11.15;3.85;;;17.90;94.60;;;;;;5098392;28;20040;-75
2022/10/20 02:19:24;;;;;;;13.30;4.20;;;17.90;94.60;;;;;;5099102;28;20079;-76
2022/10/20 02:21:53;;;;;;;12.82;4.03;;;17.90;94.70;;;;;;5097837;28;20428;-76
2022/10/20 02:24:22;;;;;;;18.50;4.30;;;17.90;94.60;;;;;;5097743;28;20038;-76
2022/10/20 02:26:50;;;;;;;11.32;4.00;;;17.90;94.60;;;;;;5099267;28;20028;-76
2022/10/20 02:29:21;;;;;;;12.82;4.35;;;17.80;94.50;;;;;;5097669;28;20028;-75
2022/10/20 02:31:47;;;;;;;10.48;4.28;;;17.80;94.70;;;;;;5085136;28;20465;-76
2022/10/20 02:34:14;;;;;;;11.57;3.85;;;17.80;94.80;;;;;;5098727;28;20024;-76
2022/10/20 02:36:41;;;;;;;13.35;4.38;;;17.80;94.80;;;;;;5093435;28;20024;-76
2022/10/20 02:39:08;;;;;;;15.20;4.47;;;17.80;94.90;;;;;;5097474;28;20039;-77
2022/10/20 02:41:34;;;;;;;14.23;4.22;;;17.90;94.90;;;;;;5098714;28;20016;-76
2022/10/20 02:44:00;;;;;;;11.38;4.10;;;17.80;94.80;;;;;;5089475;28;20439;-77
2022/10/20 02:46:25;;;;;;;10.65;3.63;;;17.80;94.80;;;;;;5091564;28;20035;-78
2022/10/20 02:48:51;;;;;;;13.57;4.60;;;17.80;94.90;;;;;;5097621;28;20055;-78
2022/10/20 02:51:16;;;;;;;10.00;3.60;;;17.80;94.90;;;;;;5098308;28;20031;-77
2022/10/20 02:53:43;;;;;;;14.65;4.57;;;17.80;94.70;;;;;;5087646;28;20035;-77
2022/10/20 02:56:09;;;;;;;9.70;3.80;;;17.80;94.80;;;;;;5098393;28;20020;-77
2022/10/20 02:58:35;;;;;;;13.15;4.15;;;17.80;94.80;;;;;;5097194;28;20438;-77
2022/10/20 03:01:01;;;;;;;9.95;3.78;;;17.80;94.70;;;;;;5088569;28;20021;-76
2022/10/20 03:03:26;;;;;;;10.52;3.95;;;17.70;94.60;;;;;;5089981;28;20399;-77
2022/10/20 03:05:52;;;;;;;11.98;3.65;;;17.70;94.60;;;;;;5098593;28;20028;-77
2022/10/20 03:08:18;;;;;;;11.35;3.65;;;17.70;94.80;;;;;;5097135;28;20035;-76
2022/10/20 03:10:44;;;;;;;12.20;3.33;;;17.70;94.90;;;;;;5096867;28;20408;-76
2022/10/20 03:13:10;;;;;;;12.00;3.63;;;17.70;94.90;;;;;;5093612;28;20023;-77
2022/10/20 03:15:36;;;;;;;13.20;4.20;;;17.70;94.90;;;;;;5091570;28;20032;-76
2022/10/20 03:18:02;;;;;;;10.93;3.38;;;17.70;94.80;;;;;;5085987;28;20035;-76
2022/10/20 03:20:28;;;;;;;10.05;3.47;;;17.70;94.80;;;;;;5093721;28;20072;-76
2022/10/20 03:22:53;;;;;;;14.63;3.58;;;17.70;94.90;;;;;;5091360;28;20028;-76
2022/10/20 03:25:19;;;;;;;10.15;3.70;;;17.70;94.90;;;;;;5084059;28;20025;-76
2022/10/20 03:27:45;;;;;;;13.65;4.05;;;17.70;94.90;;;;;;5097936;28;20028;-75
2022/10/20 03:30:10;;;;;;;14.98;3.97;;;17.70;94.90;;;;;;5095998;28;20031;-75
2022/10/20 03:32:36;;;;;;;13.75;3.80;;;17.70;95.00;;;;;;5096400;28;20598;-76
2022/10/20 03:35:02;;;;;;;11.30;4.13;;;17.70;95.00;;;;;;5094668;28;20492;-76
2022/10/20 03:37:27;;;;;;;11.65;4.15;;;17.60;94.90;;;;;;5097839;28;20030;-75
2022/10/20 03:39:53;;;;;;;11.93;4.13;;;17.60;95.10;;;;;;5097906;28;20102;-75
2022/10/20 03:42:19;;;;;;;12.80;4.07;;;17.60;95.10;;;;;;5097712;28;20045;-77
2022/10/20 03:44:44;;;;;;;11.00;4.25;;;17.60;95.10;;;;;;5097417;28;20032;-77
2022/10/20 03:47:11;;;;;;;12.27;4.05;;;17.60;95.20;;;;;;5095982;28;20024;-77
2022/10/20 03:49:37;;;;;;;12.48;3.83;;;17.60;95.20;;;;;;5094677;28;20107;-77
2022/10/20 03:52:03;;;;;;;10.63;3.75;;;17.50;95.30;;;;;;5097611;28;20069;-77
2022/10/20 03:54:29;;;;;;;12.15;4.30;;;17.50;95.30;;;;;;5095219;28;20028;-77
2022/10/20 03:56:55;;;;;;;9.88;3.70;;;17.50;95.20;;;;;;5084922;28;20050;-77
2022/10/20 03:59:20;;;;;;;11.85;3.63;;;17.50;95.40;;;;;;5095630;28;20081;-77
2022/10/20 04:01:46;;;;;;;9.95;3.70;;;17.50;95.20;;;;;;5084825;28;20036;-77
2022/10/20 04:04:12;;;;;;;13.00;3.38;;;17.50;95.30;;;;;;5093922;28;20036;-78
2022/10/20 04:06:38;;;;;;;11.15;3.50;;;17.50;95.20;;;;;;5097270;28;20064;-77
2022/10/20 04:09:03;;;;;;;8.77;3.38;;;17.50;95.30;;;;;;5092851;28;20397;-76
2022/10/20 04:11:30;;;;;;;9.63;3.67;;;17.50;95.40;;;;;;5087060;28;20028;-77
2022/10/20 04:13:56;;;;;;;8.88;2.90;;;17.50;95.40;;;;;;5084231;28;20095;-75
2022/10/20 04:16:21;;;;;;;8.73;2.78;;;17.50;95.40;;;;;;5093242;28;20465;-75
2022/10/20 04:18:47;;;;;;;9.18;2.97;;;17.50;95.40;;;;;;5086693;28;20103;-75
2022/10/20 04:21:13;;;;;;;7.55;3.00;;;17.50;95.30;;;;;;5096334;28;20413;-75
2022/10/20 04:23:39;;;;;;;7.95;3.20;;;17.40;95.40;;;;;;5093963;28;20020;-75
2022/10/20 04:26:11;;;;;;;7.93;2.50;;;17.40;95.20;;;;;;5095267;28;20065;-76
2022/10/20 04:28:39;;;;;;;6.03;2.17;;;17.40;95.20;;;;;;5097190;28;20020;-76
2022/10/20 04:31:06;;;;;;;4.00;2.10;;;17.40;95.30;;;;;;5095650;28;20024;-75
2022/10/20 04:33:32;;;;;;;8.75;2.25;;;17.40;95.10;;;;;;5092020;28;20024;-78
2022/10/20 04:36:04;;;;;;;4.82;2.30;;;17.40;95.10;;;;;;5095158;28;20020;-78
2022/10/20 04:38:31;;;;;;;8.70;1.90;;;17.40;95.00;;;;;;5093557;28;20032;-78
2022/10/20 04:40:58;;;;;;;4.50;2.00;;;17.30;95.00;;;;;;5096007;28;20039;-78
2022/10/20 04:43:24;;;;;;;7.55;2.00;;;17.30;95.00;;;;;;5095837;28;20047;-78
2022/10/20 04:45:52;;;;;;;5.82;1.85;;;17.30;95.00;;;;;;5095616;28;20027;-76
2022/10/20 04:48:19;;;;;;;6.30;1.77;;;17.30;95.10;;;;;;5096596;28;20060;-76
2022/10/20 04:50:44;;;;;;;6.55;1.92;;;17.40;95.00;;;;;;5095823;28;20020;-76
2022/10/20 04:53:10;;;;;;;6.82;1.92;;;17.40;95.10;;;;;;5083509;28;20035;-76
2022/10/20 04:55:36;;;;;;;4.05;1.83;;;17.40;95.00;;;;;;5080416;28;20020;-76
2022/10/20 04:58:02;;;;;;;7.40;1.73;;;17.40;95.00;;;;;;5090058;28;20057;-75
2022/10/20 05:00:28;;;;;;;6.95;1.65;;;17.40;94.90;;;;;;5094286;28;20032;-75
2022/10/20 05:02:54;;;;;;;4.25;1.50;;;17.40;94.90;;;;;;5089051;28;20020;-75
2022/10/20 05:05:20;;;;;;;3.92;1.15;;;17.10;95.50;;;;;;5088412;28;20546;-75
2022/10/20 05:07:45;;;;;;;7.88;1.38;;;16.30;96.70;;;;;;5087480;28;20028;-75
2022/10/20 05:10:11;;;;;;;3.50;0.60;;;15.80;99.90;;;;;;5095762;28;20031;-75
2022/10/20 05:12:36;;;;;;;2.42;0.80;;;15.20;99.90;;;;;;5087890;28;20029;-75
2022/10/20 05:15:03;;;;;;;2.05;0.52;;;14.80;99.90;;;;;;5086978;28;20431;-76
2022/10/20 05:17:29;;;;;;;0.90;0.43;;;14.70;99.90;;;;;;5094953;28;20488;-76
2022/10/20 05:19:55;;;;;;;1.27;0.50;;;14.70;99.90;;;;;;5098185;28;20153;-76
2022/10/20 05:22:21;;;;;;;1.05;0.43;;;14.50;99.90;;;;;;5093451;28;20066;-75
2022/10/20 05:24:47;;;;;;;3.65;0.50;;;14.40;99.90;;;;;;5098965;28;20032;-75
2022/10/20 05:27:12;;;;;;;2.90;0.90;;;14.30;99.90;;;;;;5097120;28;20032;-77
2022/10/20 05:29:38;;;;;;;1.42;0.60;;;14.30;99.90;;;;;;5091249;28;20028;-77
2022/10/20 05:32:04;;;;;;;2.55;0.43;;;14.40;99.90;;;;;;5096669;28;20066;-76
2022/10/20 05:34:29;;;;;;;2.00;0.38;;;14.50;99.90;;;;;;5086639;28;20031;-76
2022/10/20 05:36:55;;;;;;;0.93;0.40;;;14.50;99.90;;;;;;5084304;28;20497;-75
2022/10/20 05:39:21;;;;;;;0.60;0.22;;;14.50;99.90;;;;;;5092831;28;20080;-76
2022/10/20 05:41:47;;;;;;;1.00;0.40;;;14.60;99.90;;;;;;5091749;28;20060;-77
2022/10/20 05:44:15;;;;;;;1.85;0.40;;;14.60;99.90;;;;;;5098553;28;20019;-77
2022/10/20 05:46:41;;;;;;;1.63;0.40;;;14.60;99.90;;;;;;5098384;28;20092;-77
2022/10/20 05:49:13;;;;;;;0.88;0.32;;;14.60;99.90;;;;;;5098036;28;20504;-78
2022/10/20 05:51:38;;;;;;;0.90;0.30;;;14.60;99.90;;;;;;5098563;28;20495;-78
2022/10/20 05:54:04;;;;;;;0.50;0.25;;;14.60;99.90;;;;;;5099049;28;20028;-79
2022/10/20 05:56:30;;;;;;;0.82;0.20;;;14.30;99.90;;;;;;5098481;28;20043;-78
2022/10/20 05:58:57;;;;;;;2.03;0.35;;;14.00;99.90;;;;;;5098832;28;20020;-78
2022/10/20 06:01:25;;;;;;;0.40;0.30;;;14.20;99.90;;;;;;5102049;28;20027;-79
2022/10/20 06:03:55;;;;;;;0.82;0.60;;;14.50;99.90;;;;;;5106817;28;20032;-78
2022/10/20 06:06:24;;;;;;;0.95;0.50;;;14.60;99.90;;;;;;5111101;28;20020;-79
2022/10/20 06:08:50;;;;;;;1.30;0.43;;;14.80;99.90;;;;;;5108894;28;20019;-78
2022/10/20 06:11:17;;;;;;;0.43;0.30;;;14.90;99.90;;;;;;5102212;28;20020;-78
2022/10/20 06:13:43;;;;;;;0.80;0.40;;;15.00;99.90;;;;;;5098235;28;20024;-82
2022/10/20 06:16:16;;;;;;;0.82;0.32;;;14.90;99.90;;;;;;5098374;28;20041;-78
2022/10/20 06:18:42;;;;;;;0.40;0.30;;;14.90;99.90;;;;;;5099276;28;20453;-78
2022/10/20 06:21:24;;;;;;;0.60;0.40;;;14.80;99.90;;;;;;5098793;28;20060;-78
2022/10/20 06:23:50;;;;;;;1.15;0.35;;;14.80;99.90;;;;;;5101710;28;20050;-78
2022/10/20 06:26:21;;;;;;;0.82;0.38;;;14.80;99.90;;;;;;5098329;28;20083;-78
2022/10/20 06:28:51;;;;;;;1.15;0.30;;;14.70;99.90;;;;;;5097761;28;20100;-78
2022/10/20 06:31:19;;;;;;;2.60;0.43;;;14.60;99.90;;;;;;5098469;28;20099;-77
2022/10/20 06:33:45;;;;;;;3.30;0.60;;;14.60;99.90;;;;;;5099290;28;20035;-77
2022/10/20 06:36:12;;;;;;;1.45;0.50;;;14.50;99.90;;;;;;5099071;28;20020;-77
2022/10/20 06:38:38;;;;;;;1.17;0.38;;;14.60;99.90;;;;;;5097692;28;20013;-77
2022/10/20 06:41:06;;;;;;;1.95;0.30;;;14.70;99.90;;;;;;5095241;28;20496;-78
2022/10/20 06:43:32;;;;;;;2.10;0.50;;;14.70;99.90;;;;;;5096809;28;20016;-77
2022/10/20 06:46:01;;;;;;;2.90;0.45;;;14.50;99.90;;;;;;5097534;28;20032;-76
2022/10/20 06:48:27;;;;;;;0.90;0.40;;;14.50;99.90;;;;;;5098499;28;20016;-77
2022/10/20 06:51:02;;;;;;;2.00;0.50;;;14.50;99.90;;;;;;5093422;28;20037;-78
2022/10/20 06:53:29;;;;;;;0.85;0.40;;;14.40;99.90;;;;;;5093729;28;20083;-78
2022/10/20 06:55:56;;;;;;;1.45;0.40;;;14.40;99.90;;;;;;5094356;28;20028;-78
2022/10/20 06:58:22;;;;;;;1.33;0.45;;;14.40;99.90;;;;;;5095772;28;20077;-78
2022/10/20 07:00:56;;;;;;;2.85;0.68;;;14.40;99.90;;;;;;5096609;28;20028;-78
2022/10/20 07:03:21;;;;;;;5.68;1.30;;;14.40;99.90;;;;;;5095754;28;20055;-78
2022/10/20 07:05:47;;;;;;;1.90;0.60;;;14.30;99.90;;;;;;5098327;28;20539;-78
2022/10/20 07:08:12;;;;;;;2.42;0.68;;;14.20;99.90;;;;;;5098539;28;20020;-78
2022/10/20 07:10:38;;;;;;;2.78;0.60;;;14.20;99.90;;;;;;5098865;28;20028;-78
2022/10/20 07:13:04;;;;;;;1.75;0.85;;;14.10;99.90;;;;;;5098448;28;20016;-78
2022/10/20 07:15:29;;;;;;;3.17;0.47;;;14.10;99.90;;;;;;5096683;28;20051;-78
2022/10/20 07:17:55;;;;;;;0.85;0.50;;;14.00;99.90;;;;;;5098423;28;20523;-78
2022/10/20 07:20:20;;;;;;;3.40;0.85;;;14.10;99.90;;;;;;5098181;28;20028;-79
2022/10/20 07:22:46;;;;;;;2.95;1.05;;;14.10;99.90;;;;;;5096198;28;20069;-79
2022/10/20 07:25:12;;;;;;;3.78;0.90;;;14.10;99.90;;;;;;5097784;28;20483;-79
2022/10/20 07:27:37;;;;;;;4.22;1.20;;;14.10;99.90;;;;;;5098023;28;20558;-77
2022/10/20 07:30:03;;;;;;;3.25;1.05;;;14.00;99.90;;;;;;5098081;28;20066;-77
2022/10/20 07:32:30;;;;;;;4.43;0.60;;;14.10;99.90;;;;;;5097578;28;20392;-76
2022/10/20 07:34:56;;;;;;;1.83;0.65;;;14.00;99.90;;;;;;5097599;28;20052;-77
2022/10/20 07:37:21;;;;;;;2.88;0.73;;;14.10;99.90;;;;;;5097556;28;20430;-77
2022/10/20 07:39:47;;;;;;;1.75;0.80;;;14.10;99.90;;;;;;5097640;28;20391;-77
2022/10/20 07:42:12;;;;;;;2.45;0.80;;;14.10;99.90;;;;;;5096437;28;20049;-77
2022/10/20 07:44:38;;;;;;;2.35;0.70;;;14.20;99.90;;;;;;5097300;28;20408;-77
2022/10/20 07:47:04;;;;;;;1.30;0.63;;;14.20;99.90;;;;;;5095957;28;20073;-77
2022/10/20 07:49:29;;;;;;;1.45;0.68;;;14.20;99.90;;;;;;5097418;28;20492;-77
2022/10/20 07:51:55;;;;;;;3.53;0.95;;;14.20;99.90;;;;;;5095928;28;20021;-78
2022/10/20 07:54:21;;;;;;;2.65;0.70;;;14.20;99.90;;;;;;5097252;28;20016;-77
2022/10/20 07:56:48;;;;;;;1.48;0.60;;;14.10;99.90;;;;;;5097206;28;20022;-78
2022/10/20 07:59:14;;;;;;;3.58;1.17;;;14.10;99.90;;;;;;5097046;28;20392;-78
2022/10/20 08:01:40;;;;;;;2.33;0.63;;;14.00;99.90;;;;;;5095514;28;20016;-81
2022/10/20 08:04:06;;;;;;;2.67;0.60;;;14.00;99.90;;;;;;5096236;28;20024;-80
2022/10/20 08:06:31;;;;;;;2.65;0.60;;;14.00;99.90;;;;;;5095478;28;20099;-80
2022/10/20 08:08:57;;;;;;;1.98;0.60;;;14.10;99.90;;;;;;5097098;28;20388;-80
2022/10/20 08:11:23;;;;;;;2.47;0.80;;;14.10;99.90;;;;;;5097380;28;20054;-73
2022/10/20 08:13:49;;;;;;;4.47;0.80;;;14.00;99.90;;;;;;5097703;28;20484;-72
2022/10/20 08:16:14;;;;;;;2.83;0.57;;;13.90;99.90;;;;;;5096864;28;20044;-72
2022/10/20 08:18:41;;;;;;;1.50;0.50;;;13.90;99.90;;;;;;5097560;28;20035;-71
2022/10/20 08:21:19;;;;;;;1.58;0.50;;;14.00;99.90;;;;;;5094419;28;20109;-72
2022/10/20 08:23:47;;;;;;;1.55;0.52;;;13.90;99.90;;;;;;5094738;28;20031;-73
2022/10/20 08:26:17;;;;;;;0.88;0.57;;;13.90;99.90;;;;;;5096952;28;20508;-74
2022/10/20 08:28:42;;;;;;;1.17;0.70;;;14.00;99.90;;;;;;5096797;28;20380;-74
2022/10/20 08:31:08;;;;;;;1.27;0.50;;;14.10;99.90;;;;;;5096509;28;20028;-73
2022/10/20 08:33:34;;;;;;;2.05;0.50;;;14.10;99.90;;;;;;5096937;28;20609;-74
2022/10/20 08:36:03;;;;;;;1.73;0.60;;;14.20;99.90;;;;;;5099580;28;20053;-73
2022/10/20 08:38:28;;;;;;;0.40;0.40;;;14.20;99.90;;;;;;5100968;28;20031;-73
2022/10/20 08:40:55;;;;;;;0.60;0.40;;;14.20;99.90;;;;;;5100927;28;20492;-74
2022/10/20 08:43:20;;;;;;;0.80;0.40;;;14.30;99.90;;;;;;5100950;28;20063;-74
2022/10/20 08:45:46;;;;;;;2.08;0.60;;;14.30;99.90;;;;;;5100492;28;20024;-73
2022/10/20 08:48:17;;;;;;;3.15;0.80;;;14.30;99.90;;;;;;5100877;28;20028;-73
2022/10/20 08:50:45;;;;;;;0.90;0.45;;;14.30;99.90;;;;;;5100633;28;20028;-72
2022/10/20 08:53:11;;;;;;;2.88;0.60;;;14.40;99.90;;;;;;5100701;28;20095;-73
2022/10/20 08:55:37;;;;;;;1.00;0.57;;;14.40;99.90;;;;;;5099712;28;20115;-74
2022/10/20 08:58:05;;;;;;;1.55;0.52;;;14.40;99.90;;;;;;5101239;28;20062;-76
2022/10/20 09:00:36;;;;;;;1.33;0.50;;;14.40;99.90;;;;;;5100075;28;20032;-75
2022/10/20 09:03:22;;;;;;;2.80;0.60;;;14.50;99.90;;;;;;5100452;28;20023;-74
2022/10/20 09:06:17;;;;;;;2.17;0.80;;;14.50;99.90;;;;;;5100711;28;20028;-72
2022/10/20 09:08:43;;;;;;;1.55;0.50;;;14.50;99.90;;;;;;5080514;28;20115;-73
2022/10/20 09:11:15;;;;;;;1.58;1.10;;;14.60;99.90;;;;;;5100421;28;20036;-72
2022/10/20 09:13:40;;;;;;;2.47;0.60;;;14.60;99.90;;;;;;5100412;28;20051;-72
2022/10/20 09:16:11;;;;;;;1.63;0.50;;;14.60;99.90;;;;;;5098384;28;20385;-73
2022/10/20 09:18:37;;;;;;;3.28;0.60;;;14.60;99.90;;;;;;5100171;28;20105;-73
2022/10/20 09:21:07;;;;;;;2.08;0.60;;;14.60;99.90;;;;;;5100161;28;20031;-73
2022/10/20 09:23:44;;;;;;;2.15;0.60;;;14.70;99.90;;;;;;5100141;28;20509;-72
2022/10/20 09:26:21;;;;;;;0.90;0.40;;;14.70;99.90;;;;;;5100038;28;20028;-73
2022/10/20 09:28:49;;;;;;;2.80;0.60;;;14.80;99.90;;;;;;5100171;28;20034;-72
2022/10/20 09:31:34;;;;;;;2.78;0.60;;;14.80;99.90;;;;;;5099698;28;20026;-73
2022/10/20 09:33:59;;;;;;;0.70;0.40;;;14.80;99.90;;;;;;5098531;28;20028;-72
2022/10/20 09:36:31;;;;;;;1.35;0.43;;;14.80;99.90;;;;;;5099992;28;20035;-74
2022/10/20 09:38:57;;;;;;;0.80;0.40;;;14.80;99.90;;;;;;5098674;28;20055;-74
2022/10/20 09:41:27;;;;;;;1.73;0.50;;;14.80;99.90;;;;;;5100013;28;20016;-74
2022/10/20 09:44:06;;;;;;;1.00;0.50;;;14.80;99.90;;;;;;5099559;28;20016;-74
2022/10/20 09:46:44;;;;;;;0.80;0.43;;;14.80;99.90;;;;;;5098294;28;20032;-73
2022/10/20 09:49:30;;;;;;;0.90;0.35;;;14.90;99.90;;;;;;5099676;28;20479;-74
2022/10/20 09:51:56;;;;;;;1.30;0.50;;;14.80;99.90;;;;;;5098118;28;20076;-74
2022/10/20 09:54:24;;;;;;;2.13;0.60;;;14.90;99.90;;;;;;5099635;28;20031;-74
2022/10/20 09:56:51;;;;;;;2.45;0.60;;;15.00;99.90;;;;;;5099120;28;20024;-74
2022/10/20 09:59:43;;;;;;;1.50;0.70;;;15.00;99.90;;;;;;5098410;28;20429;-75
2022/10/20 10:02:14;;;;;;;1.13;0.43;;;15.10;99.90;;;;;;5097163;28;20055;-74
2022/10/20 10:04:45;;;;;;;0.80;0.52;;;15.10;99.90;;;;;;5099361;28;20154;-74
2022/10/20 10:07:26;;;;;;;2.35;0.55;;;15.20;99.90;;;;;;5097898;28;20028;-73
2022/10/20 10:09:58;;;;;;;2.38;0.50;;;15.30;99.90;;;;;;5099216;28;20031;-73
2022/10/20 10:12:26;;;;;;;3.40;0.50;;;15.40;99.90;;;;;;5099276;28;20027;-73
2022/10/20 10:15:11;;;;;;;4.07;0.60;;;15.40;99.90;;;;;;5098775;28;20036;-74
2022/10/20 10:17:40;;;;;;;2.75;0.75;;;15.50;99.90;;;;;;5098134;28;20114;-73
2022/10/20 10:20:11;;;;;;;5.25;0.90;;;15.60;99.90;;;;;;5097720;28;20032;-74
2022/10/20 10:22:39;;;;;;;3.65;1.10;;;15.60;99.90;;;;;;5098516;28;20024;-74
2022/10/20 10:25:06;;;;;;;7.57;1.02;;;15.70;99.90;;;;;;5098845;28;20032;-74
2022/10/20 10:27:35;;;;;;;5.40;0.98;;;15.80;99.90;;;;;;5096502;28;20031;-76
2022/10/20 10:30:26;;;;;;;5.03;1.17;;;15.80;99.90;;;;;;5107465;28;20051;-74
2022/10/20 10:32:52;;;;;;;7.43;1.13;;;15.90;99.90;;;;;;5108712;28;20448;-77
2022/10/20 10:35:33;;;;;;;4.15;1.20;;;15.90;99.90;;;;;;5097834;28;20028;-76
2022/10/20 10:37:59;;;;;;;3.78;1.10;;;16.00;99.90;;;;;;5098449;28;20028;-77
2022/10/20 10:40:35;;;;;;;4.93;1.13;;;16.00;99.90;;;;;;5099191;28;20084;-76
2022/10/20 10:43:28;;;;;;;8.52;1.27;;;16.10;99.90;;;;;;5086255;28;20028;-76
2022/10/20 10:45:59;;;;;;;4.75;1.10;;;16.10;99.90;;;;;;5111906;28;20024;-76
2022/10/20 10:48:44;;;;;;;6.40;1.30;;;16.10;99.90;;;;;;5098803;28;20063;-76
2022/10/20 10:51:33;;;;;;;4.63;1.50;;;16.20;99.90;;;;;;5099017;28;20020;-76
2022/10/20 10:53:59;;;;;;;5.75;1.55;;;16.10;99.90;;;;;;5098504;28;20111;-75
2022/10/20 10:56:36;;;;;;;9.73;6.22;;;16.20;99.90;;;;;;5098725;28;20056;-76
2022/10/20 10:59:11;;;;;;;6.93;1.70;;;16.20;99.90;;;;;;5097854;28;20099;-76
2022/10/20 11:01:55;;;;;;;7.97;2.72;;;16.20;99.90;;;;;;5103087;28;20024;-78
2022/10/20 11:04:39;;;;;;;6.10;1.50;;;16.20;99.90;;;;;;5098453;28;20024;-77
2022/10/20 11:07:34;;;;;;;4.53;1.30;;;16.30;99.90;;;;;;5098286;28;20441;-78
2022/10/20 11:10:19;;;;;;;4.75;1.23;;;16.30;99.90;;;;;;5098090;28;20049;-79
2022/10/20 11:13:00;;;;;;;7.40;1.17;;;16.30;99.90;;;;;;5098218;28;20539;-78
2022/10/20 11:15:44;;;;;;;6.38;1.10;;;16.40;99.90;;;;;;5097984;28;20119;-77
2022/10/20 11:18:12;;;;;;;5.18;1.08;;;16.40;99.90;;;;;;5098002;28;20021;-77
2022/10/20 11:20:51;;;;;;;8.80;1.40;;;16.40;99.90;;;;;;5097956;28;20032;-77
2022/10/20 11:23:20;;;;;;;3.40;1.20;;;16.50;99.90;;;;;;5097760;28;20144;-76
2022/10/20 11:25:57;;;;;;;6.18;1.52;;;16.50;99.90;;;;;;5098312;28;20393;-73
2022/10/20 11:28:45;;;;;;;4.85;1.10;;;16.50;99.90;;;;;;5097800;28;20020;-76
2022/10/20 11:31:36;;;;;;;2.92;1.00;;;16.60;99.90;;;;;;5097441;28;20108;-75
2022/10/20 11:34:12;;;;;;;5.15;0.80;;;16.60;99.90;;;;;;5094899;28;20027;-79
2022/10/20 11:36:44;;;;;;;4.53;0.93;;;16.60;99.90;;;;;;5102217;28;20076;-76
2022/10/20 11:39:29;;;;;;;4.13;0.85;;;16.70;99.90;;;;;;5096205;28;20020;-76
2022/10/20 11:42:04;;;;;;;2.92;0.82;;;16.80;99.90;;;;;;5098038;28;20023;-74
2022/10/20 11:44:32;;;;;;;2.78;0.73;;;16.70;99.90;;;;;;5097610;28;20018;-80
2022/10/20 11:47:05;;;;;;;6.20;0.93;;;16.70;99.90;;;;;;5096899;28;20479;-81
2022/10/20 11:49:32;;;;;;;4.60;0.70;;;16.80;99.90;;;;;;5097481;28;20012;-79
2022/10/20 11:52:27;;;;;;;6.13;1.58;;;16.80;99.90;;;;;;5096179;28;20038;-84
2022/10/20 11:55:24;;;;;;;4.13;1.00;;;16.80;99.90;;;;;;5068152;28;20059;-78
2022/10/20 11:58:21;;;;;;;3.30;0.90;;;16.80;99.90;;;;;;5081538;28;20057;-78
2022/10/20 12:01:00;;;;;;;3.38;0.93;;;16.80;99.90;;;;;;5097385;28;20027;-76
2022/10/20 12:03:32;;;;;;;4.28;1.30;;;16.80;99.90;;;;;;5097568;28;20024;-76
2022/10/20 12:06:27;;;;;;;3.30;1.00;;;16.80;99.90;;;;;;5096314;28;20020;-76
2022/10/20 12:09:38;;;;;;;5.07;1.13;;;16.80;99.90;;;;;;5095616;28;20035;-77
2022/10/20 12:12:11;;;;;;;3.38;1.10;;;16.80;99.90;;;;;;5077927;28;20412;-75
2022/10/20 12:14:43;;;;;;;5.68;1.40;;;16.90;99.90;;;;;;5095693;28;20061;-76
2022/10/20 12:17:33;;;;;;;5.32;1.30;;;17.00;99.90;;;;;;5097212;28;20048;-75
2022/10/20 12:20:20;;;;;;;4.60;1.58;;;17.00;99.90;;;;;;5097209;28;20023;-74
2022/10/20 12:22:52;;;;;;;3.75;1.50;;;17.10;99.90;;;;;;5097109;28;20039;-74
2022/10/20 12:25:24;;;;;;;5.00;1.27;;;17.20;99.90;;;;;;5095945;28;20035;-75
2022/10/20 12:28:24;;;;;;;4.65;1.55;;;17.20;99.90;;;;;;5095956;28;20397;-75
2022/10/20 12:30:58;;;;;;;2.35;1.10;;;17.30;99.90;;;;;;5096737;28;20028;-74
2022/10/20 12:33:53;;;;;;;4.18;1.35;;;17.40;99.90;;;;;;5097290;28;20024;-75
2022/10/20 12:36:18;;;;;;;3.40;1.23;;;17.40;99.90;;;;;;5102732;28;20028;-74
2022/10/20 12:38:49;;;;;;;4.13;1.10;;;17.50;99.90;;;;;;5094480;28;20082;-74
2022/10/20 12:41:33;;;;;;;4.13;1.25;;;17.60;99.90;;;;;;5086290;28;20109;-74
2022/10/20 12:44:12;;;;;;;3.47;1.00;;;17.60;99.90;;;;;;5085789;28;20109;-75
2022/10/20 12:46:52;;;;;;;2.75;0.80;;;17.70;99.90;;;;;;5096820;28;20028;-74
2022/10/20 12:49:36;;;;;;;4.40;0.95;;;17.70;99.90;;;;;;5096046;28;20031;-75
2022/10/20 12:52:06;;;;;;;6.60;1.20;;;17.70;99.90;;;;;;5096843;28;20503;-75
2022/10/20 12:54:38;;;;;;;8.55;1.20;;;17.80;99.90;;;;;;5095390;28;20034;-75
2022/10/20 12:57:29;;;;;;;5.18;0.95;;;17.90;99.90;;;;;;5085107;28;20029;-75
2022/10/20 12:59:55;;;;;;;5.40;1.00;;;18.00;99.90;;;;;;5096674;28;20082;-77